createdAt,value
2018-03-04T00:01:06.162Z,113.00
2018-03-04T00:03:34.538Z,107.27
2018-03-04T00:06:02.876Z,96.30
2018-03-04T00:08:30.464Z,104.53
2018-03-04T00:10:58.760Z,96.53
2018-03-04T00:13:27.173Z,99.13
2018-03-04T00:15:54.771Z,102.87
2018-03-04T00:18:22.390Z,107.43
2018-03-04T00:20:49.991Z,101.17
2018-03-04T00:23:17.645Z,101.17
2018-03-04T00:25:45.264Z,109.30
2018-03-04T00:28:12.898Z,109.17
2018-03-04T00:30:40.510Z,102.13
2018-03-04T00:33:08.864Z,109.57
2018-03-04T00:35:36.465Z,107.57
2018-03-04T00:38:04.872Z,103.93
2018-03-04T00:40:32.507Z,105.53
2018-03-04T00:43:00.888Z,101.27
2018-03-04T00:45:28.523Z,104.43
2018-03-04T00:47:56.131Z,104.30
2018-03-04T00:50:24.440Z,102.07
2018-03-04T00:52:52.005Z,105.47
2018-03-04T00:55:19.587Z,102.37
2018-03-04T00:57:47.164Z,104.73
2018-03-04T01:00:14.774Z,114.83
2018-03-04T01:02:43.135Z,101.20
2018-03-04T01:05:10.748Z,114.03
2018-03-04T01:07:38.326Z,105.93
2018-03-04T01:10:05.928Z,112.30
2018-03-04T01:12:33.526Z,105.67
2018-03-04T01:15:01.101Z,100.30
2018-03-04T01:17:28.676Z,102.20
2018-03-04T01:19:56.583Z,106.43
2018-03-04T01:22:24.178Z,106.27
2018-03-04T01:24:52.532Z,109.03
2018-03-04T01:27:20.748Z,104.07
2018-03-04T01:29:49.085Z,112.40
2018-03-04T01:32:16.654Z,108.23
2018-03-04T01:34:44.294Z,105.73
2018-03-04T01:37:11.912Z,105.87
2018-03-04T01:39:39.489Z,103.90
2018-03-04T01:42:07.177Z,111.93
2018-03-04T01:44:34.766Z,105.13
2018-03-04T01:47:03.809Z,107.70
2018-03-04T01:49:31.403Z,108.70
2018-03-04T01:51:58.980Z,105.13
2018-03-04T01:54:26.569Z,104.93
2018-03-04T01:56:54.178Z,111.97
2018-03-04T01:59:22.539Z,104.73
2018-03-04T02:01:50.133Z,112.27
2018-03-04T02:04:18.526Z,108.00
2018-03-04T02:06:46.137Z,110.40
2018-03-04T02:09:13.732Z,104.47
2018-03-04T02:11:42.118Z,116.03
2018-03-04T02:14:10.498Z,105.77
2018-03-04T02:16:38.108Z,103.03
2018-03-04T02:19:05.688Z,105.40
2018-03-04T02:21:34.005Z,110.23
2018-03-04T02:24:01.599Z,112.40
2018-03-04T02:26:29.239Z,118.40
2018-03-04T02:28:56.877Z,104.90
2018-03-04T02:31:24.539Z,109.27
2018-03-04T02:33:52.217Z,112.50
2018-03-04T02:36:21.212Z,108.20
2018-03-04T02:38:48.829Z,101.63
2018-03-04T02:41:16.443Z,110.03
2018-03-04T02:43:44.016Z,108.27
2018-03-04T02:46:11.623Z,108.87
2018-03-04T02:48:39.214Z,108.00
2018-03-04T02:51:06.788Z,109.93
2018-03-04T02:53:34.400Z,110.23
2018-03-04T02:56:02.778Z,111.67
2018-03-04T02:58:30.387Z,104.30
2018-03-04T03:00:57.989Z,116.63
2018-03-04T03:03:25.611Z,116.90
2018-03-04T03:05:53.201Z,113.33
2018-03-04T03:08:20.764Z,116.90
2018-03-04T03:10:48.358Z,117.50
2018-03-04T03:13:15.962Z,117.83
2018-03-04T03:15:43.553Z,109.47
2018-03-04T03:18:11.155Z,115.40
2018-03-04T03:20:38.767Z,116.97
2018-03-04T03:23:06.351Z,117.60
2018-03-04T03:25:33.942Z,117.33
2018-03-04T03:28:01.536Z,120.90
2018-03-04T03:30:29.891Z,112.50
2018-03-04T03:32:57.533Z,112.33
2018-03-04T03:35:25.116Z,119.23
2018-03-04T03:37:52.713Z,123.67
2018-03-04T03:40:21.076Z,125.13
2018-03-04T03:42:49.306Z,112.97
2018-03-04T03:45:16.910Z,117.70
2018-03-04T03:47:45.268Z,121.20
2018-03-04T03:50:12.878Z,112.10
2018-03-04T03:52:40.486Z,123.00
2018-03-04T03:55:08.086Z,117.53
2018-03-04T03:57:35.669Z,106.17
2018-03-04T04:00:03.315Z,105.47
2018-03-04T04:02:30.910Z,119.53
2018-03-04T04:04:59.293Z,117.20
2018-03-04T04:07:26.870Z,114.37
2018-03-04T04:09:55.226Z,117.03
2018-03-04T04:12:22.835Z,119.20
2018-03-04T04:14:50.426Z,110.20
2018-03-04T04:17:18.023Z,114.77
2018-03-04T04:19:45.676Z,119.10
2018-03-04T04:22:13.379Z,109.60
2018-03-04T04:24:41.754Z,108.47
2018-03-04T04:27:10.072Z,111.97
2018-03-04T04:29:37.684Z,115.07
2018-03-04T04:32:05.292Z,104.13
2018-03-04T04:34:32.931Z,115.07
2018-03-04T04:37:01.289Z,119.90
2018-03-04T04:39:28.868Z,116.53
2018-03-04T04:41:56.458Z,109.60
2018-03-04T04:44:24.126Z,111.03
2018-03-04T04:46:51.689Z,120.77
2018-03-04T04:49:19.285Z,110.30
2018-03-04T04:51:46.873Z,108.43
2018-03-04T04:54:14.461Z,109.10
2018-03-04T04:56:42.077Z,112.03
2018-03-04T04:59:09.673Z,107.57
2018-03-04T05:01:37.280Z,117.30
2018-03-04T05:04:04.884Z,113.43
2018-03-04T05:06:33.072Z,110.90
2018-03-04T05:09:00.656Z,117.73
2018-03-04T05:11:28.279Z,116.90
2018-03-04T05:13:55.856Z,117.47
2018-03-04T05:16:23.445Z,114.37
2018-03-04T05:18:51.566Z,125.97
2018-03-04T05:21:19.902Z,120.20
2018-03-04T05:23:47.474Z,121.10
2018-03-04T05:26:15.045Z,110.90
2018-03-04T05:28:42.671Z,111.93
2018-03-04T05:31:11.131Z,114.20
2018-03-04T05:33:39.489Z,116.60
2018-03-04T05:36:07.082Z,114.90
2018-03-04T05:38:35.499Z,120.43
2018-03-04T05:41:03.094Z,110.30
2018-03-04T05:43:30.710Z,116.13
2018-03-04T05:45:58.274Z,115.27
2018-03-04T05:48:25.903Z,125.20
2018-03-04T05:50:53.509Z,113.77
2018-03-04T05:53:21.104Z,108.80
2018-03-04T05:55:48.696Z,111.93
2018-03-04T05:58:17.454Z,113.10
2018-03-04T06:00:45.606Z,115.63
2018-03-04T06:03:13.200Z,117.87
2018-03-04T06:05:40.794Z,119.67
2018-03-04T06:08:08.387Z,112.00
2018-03-04T06:10:36.732Z,114.83
2018-03-04T06:13:04.353Z,108.67
2018-03-04T06:15:31.941Z,117.20
2018-03-04T06:17:59.554Z,111.23
2018-03-04T06:20:27.906Z,112.07
2018-03-04T06:22:55.516Z,105.33
2018-03-04T06:25:23.109Z,115.47
2018-03-04T06:27:51.185Z,111.57
2018-03-04T06:30:18.783Z,115.73
2018-03-04T06:32:46.402Z,114.90
2018-03-04T06:35:13.997Z,120.07
2018-03-04T06:37:41.577Z,108.83
2018-03-04T06:40:09.186Z,113.53
2018-03-04T06:42:37.530Z,107.13
2018-03-04T06:45:05.118Z,110.00
2018-03-04T06:47:33.446Z,113.53
2018-03-04T06:50:01.023Z,114.70
2018-03-04T06:52:28.588Z,107.50
2018-03-04T06:54:56.196Z,109.87
2018-03-04T06:57:23.780Z,116.07
2018-03-04T06:59:51.406Z,111.23
2018-03-04T07:02:18.986Z,112.30
2018-03-04T07:04:47.341Z,102.73
2018-03-04T07:07:14.937Z,115.13
2018-03-04T07:09:42.599Z,110.10
2018-03-04T07:12:10.957Z,111.33
2018-03-04T07:14:38.563Z,109.77
2018-03-04T07:17:06.934Z,106.10
2018-03-04T07:19:35.312Z,107.90
2018-03-04T07:22:02.902Z,112.50
2018-03-04T07:24:31.271Z,109.33
2018-03-04T07:26:59.625Z,116.67
2018-03-04T07:29:27.208Z,107.90
2018-03-04T07:31:54.794Z,102.03
2018-03-04T07:34:22.388Z,107.73
2018-03-04T07:36:49.978Z,110.37
2018-03-04T07:39:17.582Z,106.07
2018-03-04T07:41:45.949Z,103.23
2018-03-04T07:44:13.525Z,107.17
2018-03-04T07:46:41.915Z,107.07
2018-03-04T07:49:10.285Z,103.07
2018-03-04T07:51:39.517Z,98.30
2018-03-04T07:54:07.548Z,95.03
2018-03-04T07:56:36.064Z,101.83
2018-03-04T07:59:03.690Z,99.63
2018-03-04T08:01:31.287Z,105.23
2018-03-04T08:04:00.142Z,101.60
2018-03-04T08:06:27.716Z,99.07
2018-03-04T08:08:55.338Z,94.27
2018-03-04T08:11:22.932Z,94.70
2018-03-04T08:13:50.537Z,93.90
2018-03-04T08:16:18.908Z,100.07
2018-03-04T08:18:46.490Z,90.97
2018-03-04T08:21:14.833Z,94.93
2018-03-04T08:23:42.444Z,90.57
2018-03-04T08:26:22.742Z,94.27
2018-03-04T08:28:50.332Z,97.27
2018-03-04T08:31:18.815Z,90.20
2018-03-04T08:33:46.378Z,92.53
2018-03-04T08:36:13.958Z,93.57
2018-03-04T08:38:41.560Z,92.17
2018-03-04T08:41:09.120Z,94.17
2018-03-04T08:43:36.763Z,89.63
2018-03-04T08:46:06.048Z,90.40
2018-03-04T08:48:34.502Z,91.73
2018-03-04T08:51:02.163Z,83.10
2018-03-04T08:53:29.740Z,86.20
2018-03-04T08:55:57.312Z,81.53
2018-03-04T08:58:24.912Z,80.33
2018-03-04T09:00:53.359Z,80.13
2018-03-04T09:03:20.994Z,80.10
2018-03-04T09:05:48.716Z,80.23
2018-03-04T09:08:17.779Z,74.43
2018-03-04T09:10:45.353Z,76.83
2018-03-04T09:13:12.945Z,74.27
2018-03-04T09:15:40.554Z,75.83
2018-03-04T09:18:08.139Z,74.87
2018-03-04T09:20:35.718Z,82.00
2018-03-04T09:23:03.307Z,81.27
2018-03-04T09:25:30.921Z,84.60
2018-03-04T09:27:58.522Z,79.67
2018-03-04T09:30:26.152Z,77.60
2018-03-04T09:32:53.746Z,77.03
2018-03-04T09:35:21.351Z,70.07
2018-03-04T09:37:49.722Z,78.03
2018-03-04T09:40:17.302Z,68.97
2018-03-04T09:42:44.888Z,69.13
2018-03-04T09:45:12.466Z,69.53
2018-03-04T09:47:40.077Z,70.53
2018-03-04T09:50:07.643Z,73.07
2018-03-04T09:52:35.262Z,70.37
2018-03-04T09:55:02.851Z,60.33
2018-03-04T09:57:30.429Z,63.43
2018-03-04T09:59:58.082Z,55.73
2018-03-04T10:02:25.685Z,55.83
2018-03-04T10:04:53.285Z,57.00
2018-03-04T10:07:20.874Z,56.20
2018-03-04T10:09:48.459Z,53.50
2018-03-04T10:12:16.053Z,55.03
2018-03-04T10:14:44.407Z,54.13
2018-03-04T10:17:12.021Z,54.23
2018-03-04T10:19:39.628Z,53.23
2018-03-04T10:22:07.246Z,54.10
2018-03-04T10:24:34.868Z,51.73
2018-03-04T10:27:02.452Z,50.93
2018-03-04T10:29:30.040Z,50.27
2018-03-04T10:31:57.690Z,54.73
2018-03-04T10:34:25.279Z,46.70
2018-03-04T10:36:53.643Z,51.83
2018-03-04T10:39:22.042Z,46.90
2018-03-04T10:41:49.691Z,44.07
2018-03-04T10:44:17.367Z,44.03
2018-03-04T10:46:45.713Z,42.23
2018-03-04T10:49:13.326Z,43.50
2018-03-04T10:51:40.954Z,40.77
2018-03-04T10:54:08.557Z,44.43
2018-03-04T10:56:36.214Z,53.00
2018-03-04T10:59:03.846Z,47.47
2018-03-04T11:01:35.218Z,51.70
2018-03-04T11:04:02.830Z,51.90
2018-03-04T11:06:30.450Z,50.13
2018-03-04T11:08:58.059Z,47.87
2018-03-04T11:11:25.722Z,50.60
2018-03-04T11:13:54.125Z,47.13
2018-03-04T11:16:21.707Z,51.23
2018-03-04T11:18:49.320Z,51.53
2018-03-04T11:21:16.904Z,50.40
2018-03-04T11:23:44.512Z,46.23
2018-03-04T11:26:12.132Z,46.00
2018-03-04T11:28:39.787Z,42.23
2018-03-04T11:31:08.121Z,47.27
2018-03-04T11:33:35.713Z,44.03
2018-03-04T11:36:04.063Z,47.37
2018-03-04T11:38:31.686Z,46.60
2018-03-04T11:40:59.284Z,46.50
2018-03-04T11:43:26.924Z,46.73
2018-03-04T11:45:54.520Z,46.10
2018-03-04T11:48:22.114Z,44.67
2018-03-04T11:50:50.465Z,45.60
2018-03-04T11:53:18.064Z,43.27
2018-03-04T11:55:46.422Z,45.97
2018-03-04T11:58:14.025Z,44.03
2018-03-04T12:00:41.628Z,43.73
2018-03-04T12:03:09.245Z,47.97
2018-03-04T12:05:37.601Z,40.07
2018-03-04T12:08:05.180Z,45.03
2018-03-04T12:10:32.763Z,42.13
2018-03-04T12:13:00.478Z,41.93
2018-03-04T12:15:28.055Z,42.93
2018-03-04T12:17:55.693Z,43.67
2018-03-04T12:20:23.297Z,44.17
2018-03-04T12:22:50.927Z,43.00
2018-03-04T12:25:18.514Z,43.67
2018-03-04T12:27:46.145Z,44.50
2018-03-04T12:30:13.760Z,41.27
2018-03-04T12:32:41.412Z,42.17
2018-03-04T12:35:09.004Z,40.23
2018-03-04T12:37:37.433Z,42.67
2018-03-04T12:40:05.079Z,42.13
2018-03-04T12:42:32.684Z,40.80
2018-03-04T12:45:00.307Z,44.57
2018-03-04T12:47:27.969Z,41.43
2018-03-04T12:49:56.340Z,44.27
2018-03-04T12:52:24.764Z,40.07
2018-03-04T12:54:52.388Z,47.03
2018-03-04T12:57:20.016Z,42.60
2018-03-04T12:59:47.689Z,43.07
2018-03-04T13:02:15.431Z,41.13
2018-03-04T13:04:43.039Z,39.67
2018-03-04T13:07:12.611Z,37.63
2018-03-04T13:09:40.205Z,37.90
2018-03-04T13:12:07.844Z,35.67
2018-03-04T13:14:36.339Z,37.17
2018-03-04T13:17:03.982Z,34.90
2018-03-04T13:19:31.598Z,36.90
2018-03-04T13:21:59.203Z,37.40
2018-03-04T13:24:26.808Z,32.73
2018-03-04T13:26:54.446Z,38.23
2018-03-04T13:29:22.038Z,34.27
2018-03-04T13:31:49.673Z,35.40
2018-03-04T13:34:17.256Z,38.07
2018-03-04T13:36:44.853Z,36.70
2018-03-04T13:39:12.446Z,31.07
2018-03-04T13:41:43.357Z,34.63
2018-03-04T13:44:11.005Z,32.43
2018-03-04T13:46:38.605Z,32.83
2018-03-04T13:49:06.187Z,30.40
2018-03-04T13:51:34.568Z,30.27
2018-03-04T13:54:02.959Z,34.07
2018-03-04T13:56:31.335Z,39.93
2018-03-04T13:58:59.711Z,37.63
2018-03-04T14:01:28.067Z,33.87
2018-03-04T14:03:55.702Z,31.57
2018-03-04T14:06:23.302Z,32.13
2018-03-04T14:08:50.878Z,32.63
2018-03-04T14:11:18.482Z,31.33
2018-03-04T14:13:46.080Z,29.37
2018-03-04T14:16:13.688Z,28.57
2018-03-04T14:18:42.046Z,32.53
2018-03-04T14:21:09.673Z,32.47
2018-03-04T14:23:37.281Z,35.97
2018-03-04T14:26:05.151Z,35.70
2018-03-04T14:28:33.259Z,34.10
2018-03-04T14:31:02.214Z,30.97
2018-03-04T14:33:29.866Z,32.17
2018-03-04T14:35:57.557Z,32.87
2018-03-04T14:38:25.170Z,30.63
2018-03-04T14:40:52.766Z,35.53
2018-03-04T14:43:20.356Z,37.43
2018-03-04T14:45:48.130Z,36.43
2018-03-04T14:48:15.722Z,31.67
2018-03-04T14:50:44.067Z,30.43
2018-03-04T14:53:11.700Z,35.63
2018-03-04T14:55:39.321Z,35.00
2018-03-04T14:58:07.713Z,36.03
2018-03-04T15:00:36.133Z,36.50
2018-03-04T15:03:03.717Z,36.37
2018-03-04T15:05:31.335Z,34.43
2018-03-04T15:07:59.827Z,35.77
2018-03-04T15:10:27.420Z,34.70
2018-03-04T15:12:55.021Z,33.63
2018-03-04T15:15:22.595Z,36.20
2018-03-04T15:17:50.207Z,32.67
2018-03-04T15:20:17.806Z,38.97
2018-03-04T15:22:45.387Z,34.57
2018-03-04T15:25:12.975Z,39.13
2018-03-04T15:27:41.346Z,36.13
2018-03-04T15:30:09.700Z,37.03
2018-03-04T15:32:37.300Z,39.90
2018-03-04T15:35:05.640Z,37.67
2018-03-04T15:37:33.233Z,36.93
2018-03-04T15:40:00.818Z,35.37
2018-03-04T15:42:28.430Z,39.57
2018-03-04T15:44:56.027Z,39.67
2018-03-04T15:47:24.807Z,42.60
2018-03-04T15:49:52.445Z,37.47
2018-03-04T15:52:20.035Z,38.77
2018-03-04T15:54:47.752Z,39.60
2018-03-04T15:57:15.370Z,36.37
2018-03-04T15:59:42.981Z,40.10
2018-03-04T16:02:10.706Z,34.83
2018-03-04T16:04:38.793Z,34.97
2018-03-04T16:07:07.154Z,38.13
2018-03-04T16:09:34.735Z,39.13
2018-03-04T16:12:02.459Z,34.80
2018-03-04T16:14:30.242Z,38.03
2018-03-04T16:16:58.724Z,38.93
2018-03-04T16:19:26.368Z,37.90
2018-03-04T16:21:56.824Z,35.23
2018-03-04T16:24:24.459Z,35.87
2018-03-04T16:26:52.067Z,36.37
2018-03-04T16:29:19.666Z,37.10
2018-03-04T16:31:48.017Z,38.47
2018-03-04T16:34:15.643Z,35.73
2018-03-04T16:36:43.223Z,36.80
2018-03-04T16:39:10.816Z,35.03
2018-03-04T16:41:38.432Z,35.43
2018-03-04T16:44:06.050Z,34.43
2018-03-04T16:46:33.629Z,32.43
2018-03-04T16:49:01.238Z,42.77
2018-03-04T16:51:28.875Z,33.57
2018-03-04T16:53:57.232Z,34.93
2018-03-04T16:56:24.806Z,33.30
2018-03-04T16:58:52.475Z,36.27
2018-03-04T17:01:20.060Z,33.87
2018-03-04T17:03:48.396Z,34.97
2018-03-04T17:06:15.970Z,33.93
2018-03-04T17:08:43.558Z,38.47
2018-03-04T17:11:11.190Z,32.70
2018-03-04T17:13:38.783Z,32.50
2018-03-04T17:16:06.380Z,35.33
2018-03-04T17:18:33.996Z,31.90
2018-03-04T17:21:01.563Z,32.37
2018-03-04T17:23:29.136Z,32.30
2018-03-04T17:25:56.707Z,30.47
2018-03-04T17:28:24.325Z,32.40
2018-03-04T17:30:52.669Z,35.57
2018-03-04T17:33:21.019Z,34.53
2018-03-04T17:35:48.629Z,33.73
2018-03-04T17:38:16.207Z,31.43
2018-03-04T17:40:43.817Z,33.30
2018-03-04T17:43:11.419Z,28.73
2018-03-04T17:45:39.836Z,34.37
2018-03-04T17:48:09.022Z,29.07
2018-03-04T17:50:36.674Z,32.20
2018-03-04T17:53:05.123Z,30.30
2018-03-04T17:55:33.648Z,28.63
2018-03-04T17:58:01.258Z,26.97
2018-03-04T18:00:28.979Z,26.97
2018-03-04T18:02:56.608Z,32.07
2018-03-04T18:05:24.317Z,29.27
2018-03-04T18:07:51.967Z,27.70
2018-03-04T18:10:20.217Z,29.13
2018-03-04T18:12:47.841Z,29.17
2018-03-04T18:15:15.435Z,33.07
2018-03-04T18:17:43.048Z,31.23
2018-03-04T18:20:10.675Z,33.47
2018-03-04T18:22:38.391Z,35.10
2018-03-04T18:25:06.034Z,30.70
2018-03-04T18:27:33.630Z,33.20
2018-03-04T18:30:01.246Z,32.07
2018-03-04T18:32:29.732Z,31.83
2018-03-04T18:34:57.387Z,32.43
2018-03-04T18:37:24.962Z,26.77
2018-03-04T18:39:52.992Z,27.00
2018-03-04T18:42:21.277Z,26.73
2018-03-04T18:44:48.941Z,30.13
2018-03-04T18:47:16.620Z,29.87
2018-03-04T18:49:44.282Z,28.93
2018-03-04T18:52:12.007Z,29.17
2018-03-04T18:54:40.418Z,29.30
2018-03-04T18:57:08.612Z,30.40
2018-03-04T18:59:36.186Z,28.73
2018-03-04T19:02:03.858Z,26.27
2018-03-04T19:04:31.437Z,24.70
2018-03-04T19:06:59.080Z,23.93
2018-03-04T19:09:26.708Z,24.17
2018-03-04T19:11:55.105Z,21.30
2018-03-04T19:14:23.444Z,25.93
2018-03-04T19:16:51.016Z,23.30
2018-03-04T19:19:19.570Z,21.17
2018-03-04T19:21:47.813Z,20.57
2018-03-04T19:24:16.178Z,26.87
2018-03-04T19:26:44.615Z,25.90
2018-03-04T19:29:12.278Z,23.37
2018-03-04T19:31:39.959Z,25.63
2018-03-04T19:34:07.570Z,26.30
2018-03-04T19:36:36.041Z,23.70
2018-03-04T19:39:03.691Z,23.90
2018-03-04T19:41:31.295Z,27.17
2018-03-04T19:43:59.638Z,27.43
2018-03-04T19:46:27.234Z,34.60
2018-03-04T19:48:55.638Z,26.10
2018-03-04T19:51:23.247Z,31.07
2018-03-04T19:53:50.832Z,32.83
2018-03-04T19:56:19.127Z,36.37
2018-03-04T19:58:46.716Z,36.30
2018-03-04T20:01:14.306Z,39.00
2018-03-04T20:03:41.886Z,36.63
2018-03-04T20:06:09.462Z,36.47
2018-03-04T20:08:37.027Z,38.40
2018-03-04T20:11:04.649Z,40.97
2018-03-04T20:13:32.252Z,41.30
2018-03-04T20:15:59.835Z,47.47
2018-03-04T20:18:27.439Z,41.60
2018-03-04T20:20:55.943Z,41.77
2018-03-04T20:23:23.566Z,49.33
2018-03-04T20:25:51.940Z,44.37
2018-03-04T20:28:19.521Z,48.30
2018-03-04T20:30:47.910Z,48.00
2018-03-04T20:33:15.501Z,47.63
2018-03-04T20:35:43.054Z,49.37
2018-03-04T20:38:10.633Z,51.90
2018-03-04T20:40:38.281Z,49.20
2018-03-04T20:43:05.924Z,55.47
2018-03-04T20:45:33.592Z,52.23
2018-03-04T20:48:01.925Z,49.73
2018-03-04T20:50:29.535Z,52.47
2018-03-04T20:52:57.161Z,52.13
2018-03-04T20:55:24.750Z,52.37
2018-03-04T20:57:52.379Z,50.83
2018-03-04T21:00:20.025Z,58.03
2018-03-04T21:02:47.619Z,58.10
2018-03-04T21:05:15.226Z,59.87
2018-03-04T21:07:43.653Z,62.83
2018-03-04T21:10:11.234Z,64.97
2018-03-04T21:12:38.861Z,64.80
2018-03-04T21:15:06.441Z,68.93
2018-03-04T21:17:34.041Z,60.50
2018-03-04T21:20:01.613Z,66.97
2018-03-04T21:22:29.190Z,68.07
2018-03-04T21:24:56.801Z,68.47
2018-03-04T21:27:24.434Z,72.10
2018-03-04T21:29:52.025Z,71.90
2018-03-04T21:32:19.595Z,78.67
2018-03-04T21:34:47.171Z,72.80
2018-03-04T21:37:14.780Z,65.23
2018-03-04T21:39:42.342Z,65.30
2018-03-04T21:42:09.937Z,64.33
2018-03-04T21:44:38.529Z,65.67
2018-03-04T21:47:06.878Z,59.13
2018-03-04T21:49:34.457Z,61.07
2018-03-04T21:52:02.557Z,56.53
2018-03-04T21:54:34.049Z,47.77
2018-03-04T21:57:01.674Z,51.23
2018-03-04T21:59:30.018Z,48.13
2018-03-04T22:01:57.632Z,40.33
2018-03-04T22:04:25.210Z,39.47
2018-03-04T22:06:52.834Z,31.97
2018-03-04T22:09:20.466Z,31.70
2018-03-04T22:11:48.062Z,30.50
2018-03-04T22:14:15.715Z,23.73
2018-03-04T22:16:43.357Z,23.63
2018-03-04T22:19:10.974Z,20.27
2018-03-04T22:21:39.373Z,18.93
2018-03-04T22:24:06.974Z,19.30
2018-03-04T22:26:34.585Z,17.87
2018-03-04T22:29:02.955Z,17.37
2018-03-04T22:31:30.578Z,15.77
2018-03-04T22:33:58.187Z,15.20
2018-03-04T22:36:25.795Z,13.17
2018-03-04T22:38:53.388Z,11.73
2018-03-04T22:41:20.956Z,12.97
2018-03-04T22:43:48.602Z,10.33
2018-03-04T22:46:16.207Z,10.50
2018-03-04T22:48:43.819Z,10.00
2018-03-04T22:51:11.439Z,10.63
2018-03-04T22:53:39.447Z,10.63
2018-03-04T22:56:07.032Z,13.00
2018-03-04T22:58:34.615Z,10.73
2018-03-04T23:01:02.167Z,12.37
2018-03-04T23:03:30.627Z,10.07
2018-03-04T23:05:58.985Z,11.80
2018-03-04T23:08:26.567Z,10.63
2018-03-04T23:10:54.151Z,10.90
2018-03-04T23:13:21.733Z,11.07
2018-03-04T23:15:49.309Z,9.10
2018-03-04T23:18:16.881Z,10.47
2018-03-04T23:20:44.483Z,12.23
2018-03-04T23:23:12.843Z,10.27
2018-03-04T23:25:40.432Z,12.33
2018-03-04T23:28:08.775Z,9.93
2018-03-04T23:30:36.333Z,10.73
2018-03-04T23:33:03.924Z,9.87
2018-03-04T23:35:31.545Z,10.60
2018-03-04T23:37:59.252Z,9.00
2018-03-04T23:40:26.844Z,11.47
2018-03-04T23:42:55.219Z,11.20
2018-03-04T23:45:22.833Z,9.80
2018-03-04T23:47:50.421Z,10.83
2018-03-04T23:50:18.839Z,10.70
2018-03-04T23:52:47.167Z,12.60
2018-03-04T23:55:14.759Z,11.63
2018-03-04T23:57:42.341Z,12.70
